createdAt,value
2022-12-24T00:01:06.700Z,100347.50
2022-12-24T00:03:34.545Z,100345.72
2022-12-24T00:06:05.853Z,100349.22
2022-12-24T00:08:32.938Z,100349.16
2022-12-24T00:10:59.853Z,100345.72
2022-12-24T00:13:26.561Z,100345.72
2022-12-24T00:15:53.223Z,100356.00
2022-12-24T00:18:19.908Z,100363.75
2022-12-24T00:20:49.822Z,100367.97
2022-12-24T00:23:17.436Z,100359.25
2022-12-24T00:25:44.759Z,100366.94
2022-12-24T00:28:12.762Z,100367.75
2022-12-24T00:30:40.367Z,100364.31
2022-12-24T00:33:07.166Z,100360.84
2022-12-24T00:35:34.950Z,100372.06
2022-12-24T00:38:01.725Z,100377.25
2022-12-24T00:40:28.358Z,100373.81
2022-12-24T00:42:55.019Z,100381.56
2022-12-24T00:45:22.083Z,100385.81
2022-12-24T00:47:49.158Z,100392.63
2022-12-24T00:50:15.951Z,100389.13
2022-12-24T00:52:42.597Z,100397.75
2022-12-24T00:55:09.777Z,100396.75
2022-12-24T00:57:36.515Z,100387.97
2022-12-24T01:00:04.957Z,100396.53
2022-12-24T01:02:31.779Z,100391.34
2022-12-24T01:05:10.814Z,100396.53
2022-12-24T01:07:39.255Z,100403.50
2022-12-24T01:10:06.662Z,100406.09
2022-12-24T01:12:33.559Z,100402.75
2022-12-24T01:15:00.289Z,100410.53
2022-12-24T01:17:28.907Z,100409.63
2022-12-24T01:19:55.641Z,100416.38
2022-12-24T01:22:22.355Z,100410.19
2022-12-24T01:24:49.119Z,100420.50
2022-12-24T01:27:15.828Z,100414.41
2022-12-24T01:29:42.480Z,100416.97
2022-12-24T01:32:09.308Z,100423.03
2022-12-24T01:34:36.451Z,100428.22
2022-12-24T01:37:03.343Z,100424.78
2022-12-24T01:39:30.094Z,100421.38
2022-12-24T01:42:15.795Z,100430.91
2022-12-24T01:44:44.163Z,100438.69
2022-12-24T01:47:15.943Z,100437.81
2022-12-24T01:49:47.347Z,100442.19
2022-12-24T01:52:20.238Z,100435.31
2022-12-24T01:55:01.804Z,100443.13
2022-12-24T01:57:34.685Z,100431.06
2022-12-24T02:00:07.681Z,100430.28
2022-12-24T02:02:34.987Z,100438.97
2022-12-24T02:05:21.907Z,100430.28
2022-12-24T02:07:49.547Z,100443.25
2022-12-24T02:10:17.006Z,100457.13
2022-12-24T02:12:45.405Z,100462.25
2022-12-24T02:15:18.215Z,100467.31
2022-12-24T02:18:02.964Z,100469.03
2022-12-24T02:20:57.520Z,100475.06
2022-12-24T02:23:39.027Z,100482.66
2022-12-24T02:26:27.117Z,100493.66
2022-12-24T02:29:28.664Z,100484.03
2022-12-24T02:32:03.737Z,100475.31
2022-12-24T02:34:33.156Z,100477.00
2022-12-24T02:37:12.378Z,100476.88
2022-12-24T02:39:52.676Z,100477.63
2022-12-24T02:42:26.296Z,100477.47
2022-12-24T02:45:07.103Z,100479.91
2022-12-24T02:47:35.387Z,100484.06
2022-12-24T02:50:04.435Z,100481.38
2022-12-24T02:52:36.814Z,100475.28
2022-12-24T02:55:07.659Z,100485.63
2022-12-24T02:57:37.117Z,100496.03
2022-12-24T03:00:18.309Z,100501.19
2022-12-24T03:03:08.039Z,100506.38
2022-12-24T03:06:02.100Z,100510.50
2022-12-24T03:08:33.827Z,100516.53
2022-12-24T03:11:10.923Z,100526.88
2022-12-24T03:13:38.957Z,100530.31
2022-12-24T03:16:13.855Z,100538.06
2022-12-24T03:18:44.517Z,100541.44
2022-12-24T03:21:18.111Z,100549.09
2022-12-24T03:23:45.063Z,100544.75
2022-12-24T03:26:14.664Z,100547.31
2022-12-24T03:28:43.254Z,100550.75
2022-12-24T03:31:11.098Z,100546.44
2022-12-24T03:33:38.150Z,100562.97
2022-12-24T03:36:06.227Z,100558.91
2022-12-24T03:38:33.068Z,100562.47
2022-12-24T03:41:00.058Z,100556.56
2022-12-24T03:43:26.746Z,100546.28
2022-12-24T03:45:53.477Z,100549.78
2022-12-24T03:48:20.182Z,100554.03
2022-12-24T03:50:46.935Z,100554.09
2022-12-24T03:53:13.596Z,100557.38
2022-12-24T03:55:40.443Z,100567.63
2022-12-24T03:58:07.246Z,100560.81
2022-12-24T04:00:33.911Z,100570.31
2022-12-24T04:03:00.621Z,100555.66
2022-12-24T04:05:27.383Z,100566.06
2022-12-24T04:07:54.087Z,100573.81
2022-12-24T04:10:20.813Z,100576.34
2022-12-24T04:12:47.463Z,100573.66
2022-12-24T04:15:14.277Z,100588.31
2022-12-24T04:17:40.993Z,100584.06
2022-12-24T04:20:08.348Z,100589.25
2022-12-24T04:22:35.015Z,100585.81
2022-12-24T04:25:01.669Z,100578.91
2022-12-24T04:27:30.710Z,100582.34
2022-12-24T04:29:58.016Z,100583.19
2022-12-24T04:32:26.393Z,100575.38
2022-12-24T04:34:53.167Z,100576.25
2022-12-24T04:37:19.846Z,100581.44
2022-12-24T04:39:46.533Z,100584.91
2022-12-24T04:42:13.193Z,100582.34
2022-12-24T04:44:39.879Z,100578.13
2022-12-24T04:47:06.559Z,100576.41
2022-12-24T04:49:33.223Z,100578.97
2022-12-24T04:51:59.894Z,100578.91
2022-12-24T04:54:26.609Z,100583.91
2022-12-24T04:56:53.282Z,100583.66
2022-12-24T04:59:19.952Z,100589.50
2022-12-24T05:01:46.668Z,100598.09
2022-12-24T05:04:13.429Z,100600.63
2022-12-24T05:06:40.110Z,100608.28
2022-12-24T05:09:06.858Z,100614.28
2022-12-24T05:11:33.542Z,100625.56
2022-12-24T05:14:00.236Z,100629.88
2022-12-24T05:16:27.005Z,100630.66
2022-12-24T05:18:54.167Z,100628.94
2022-12-24T05:21:23.464Z,100623.84
2022-12-24T05:24:09.761Z,100610.09
2022-12-24T05:27:02.782Z,100617.91
2022-12-24T05:29:29.442Z,100620.59
2022-12-24T05:31:56.064Z,100627.56
2022-12-24T05:34:22.717Z,100631.94
2022-12-24T05:36:49.400Z,100627.75
2022-12-24T05:39:18.085Z,100626.09
2022-12-24T05:41:47.531Z,100632.91
2022-12-24T05:44:16.245Z,100624.19
2022-12-24T05:46:43.805Z,100635.31
2022-12-24T05:49:10.748Z,100640.44
2022-12-24T05:51:37.505Z,100645.53
2022-12-24T05:54:04.729Z,100646.34
2022-12-24T05:56:31.565Z,100650.72
2022-12-24T05:58:58.800Z,100655.13
2022-12-24T06:01:26.370Z,100655.19
2022-12-24T06:03:53.801Z,100656.91
2022-12-24T06:06:23.948Z,100662.84
2022-12-24T06:08:52.733Z,100662.84
2022-12-24T06:11:25.209Z,100660.34
2022-12-24T06:13:52.910Z,100662.09
2022-12-24T06:16:21.184Z,100675.09
2022-12-24T06:18:47.995Z,100670.03
2022-12-24T06:21:15.484Z,100674.41
2022-12-24T06:23:43.977Z,100676.16
2022-12-24T06:26:17.539Z,100677.97
2022-12-24T06:28:45.307Z,100684.00
2022-12-24T06:31:14.521Z,100684.88
2022-12-24T06:33:41.591Z,100685.75
2022-12-24T06:36:16.640Z,100694.38
2022-12-24T06:38:44.128Z,100690.97
2022-12-24T06:41:10.879Z,100684.97
2022-12-24T06:43:37.663Z,100697.91
2022-12-24T06:46:04.896Z,100701.38
2022-12-24T06:48:31.810Z,100701.38
2022-12-24T06:50:58.490Z,100701.38
2022-12-24T06:53:25.447Z,100701.38
2022-12-24T06:55:52.130Z,100711.66
2022-12-24T06:58:18.803Z,100715.88
2022-12-24T07:00:47.741Z,100707.25
2022-12-24T07:03:14.511Z,100718.47
2022-12-24T07:05:41.338Z,100722.78
2022-12-24T07:08:08.942Z,100716.81
2022-12-24T07:10:35.645Z,100722.00
2022-12-24T07:13:02.299Z,100725.34
2022-12-24T07:15:28.956Z,100730.31
2022-12-24T07:17:55.676Z,100739.53
2022-12-24T07:20:22.510Z,100737.69
2022-12-24T07:22:49.189Z,100753.97
2022-12-24T07:25:15.959Z,100759.97
2022-12-24T07:27:42.775Z,100762.41
2022-12-24T07:30:10.800Z,100763.94
2022-12-24T07:32:37.573Z,100769.09
2022-12-24T07:35:04.480Z,100771.66
2022-12-24T07:37:31.132Z,100760.34
2022-12-24T07:39:57.860Z,100765.44
2022-12-24T07:42:24.716Z,100765.41
2022-12-24T07:44:51.551Z,100772.22
2022-12-24T07:47:18.246Z,100776.53
2022-12-24T07:49:44.928Z,100779.06
2022-12-24T07:52:11.614Z,100781.50
2022-12-24T07:54:38.345Z,100775.47
2022-12-24T07:57:05.122Z,100781.56
2022-12-24T07:59:31.781Z,100791.94
2022-12-24T08:01:58.741Z,100789.41
2022-12-24T08:04:25.541Z,100793.00
2022-12-24T08:06:52.269Z,100788.91
2022-12-24T08:09:19.317Z,100796.88
2022-12-24T08:11:51.721Z,100795.31
2022-12-24T08:14:19.455Z,100801.47
2022-12-24T08:16:46.189Z,100801.53
2022-12-24T08:19:13.008Z,100802.41
2022-12-24T08:21:39.655Z,100816.31
2022-12-24T08:24:06.703Z,100812.03
2022-12-24T08:26:33.363Z,100818.09
2022-12-24T08:29:00.115Z,100820.59
2022-12-24T08:31:26.820Z,100824.13
2022-12-24T08:33:53.514Z,100817.25
2022-12-24T08:36:20.247Z,100823.34
2022-12-24T08:38:46.892Z,100826.84
2022-12-24T08:41:13.612Z,100826.84
2022-12-24T08:43:40.268Z,100830.38
2022-12-24T08:46:07.120Z,100831.16
2022-12-24T08:48:34.001Z,100837.16
2022-12-24T08:51:00.700Z,100832.75
2022-12-24T08:53:27.367Z,100832.75
2022-12-24T08:56:01.788Z,100831.00
2022-12-24T08:58:29.731Z,100838.88
2022-12-24T09:00:56.490Z,100835.63
2022-12-24T09:03:27.508Z,100844.38
2022-12-24T09:05:55.144Z,100843.69
2022-12-24T09:08:21.874Z,100849.84
2022-12-24T09:10:48.562Z,100863.75
2022-12-24T09:13:15.232Z,100865.56
2022-12-24T09:15:41.879Z,100869.91
2022-12-24T09:18:08.573Z,100873.50
2022-12-24T09:20:35.243Z,100877.97
2022-12-24T09:23:01.955Z,100879.84
2022-12-24T09:25:28.609Z,100885.97
2022-12-24T09:27:55.280Z,100876.59
2022-12-24T09:30:22.102Z,100883.69
2022-12-24T09:32:51.810Z,100886.50
2022-12-24T09:35:18.545Z,100889.28
2022-12-24T09:37:45.265Z,100887.81
2022-12-24T09:40:25.117Z,100881.91
2022-12-24T09:42:55.037Z,100891.56
2022-12-24T09:45:36.684Z,100896.75
2022-12-24T09:48:28.295Z,100892.41
2022-12-24T09:51:09.441Z,100897.59
2022-12-24T09:54:15.598Z,100907.06
2022-12-24T09:56:46.577Z,100907.00
2022-12-24T09:59:25.702Z,100911.31
2022-12-24T10:01:55.013Z,100913.03
2022-12-24T10:04:27.015Z,100913.94
2022-12-24T10:07:31.561Z,100910.56
2022-12-24T10:10:08.086Z,100918.53
2022-12-24T10:12:49.900Z,100927.25
2022-12-24T10:15:27.221Z,100920.44
2022-12-24T10:18:19.765Z,100919.63
2022-12-24T10:21:04.768Z,100920.50
2022-12-24T10:23:46.700Z,100934.34
2022-12-24T10:26:25.879Z,100924.84
2022-12-24T10:28:58.231Z,100928.41
2022-12-24T10:31:32.556Z,100931.16
2022-12-24T10:34:06.002Z,100921.75
2022-12-24T10:36:33.337Z,100929.59
2022-12-24T10:39:00.438Z,100937.50
2022-12-24T10:41:30.680Z,100935.75
2022-12-24T10:43:59.263Z,100939.28
2022-12-24T10:46:36.657Z,100943.59
2022-12-24T10:49:12.879Z,100941.09
2022-12-24T10:51:51.223Z,100937.72
2022-12-24T10:54:27.474Z,100948.97
2022-12-24T10:56:59.890Z,100942.94
2022-12-24T10:59:35.424Z,100947.41
2022-12-24T11:02:02.763Z,100944.06
2022-12-24T11:04:32.600Z,100941.56
2022-12-24T11:07:05.486Z,100949.59
2022-12-24T11:09:41.289Z,100951.66
2022-12-24T11:12:19.100Z,100958.69
2022-12-24T11:14:45.864Z,100957.00
2022-12-24T11:17:23.376Z,100959.63
2022-12-24T11:19:50.936Z,100962.22
2022-12-24T11:22:22.973Z,100962.25
2022-12-24T11:25:18.328Z,100952.16
2022-12-24T11:27:49.816Z,100951.63
2022-12-24T11:30:16.547Z,100952.56
2022-12-24T11:32:48.968Z,100958.63
2022-12-24T11:35:24.322Z,100962.03
2022-12-24T11:38:25.235Z,100962.88
2022-12-24T11:41:12.449Z,100962.78
2022-12-24T11:43:48.575Z,100966.19
2022-12-24T11:46:27.498Z,100962.63
2022-12-24T11:49:18.093Z,100966.88
2022-12-24T11:52:03.825Z,100975.53
2022-12-24T11:54:37.108Z,100978.97
2022-12-24T11:57:04.260Z,100978.03
2022-12-24T11:59:36.794Z,100994.50
2022-12-24T12:02:27.146Z,100996.25
2022-12-24T12:05:05.644Z,100994.69
2022-12-24T12:07:36.847Z,100991.22
2022-12-24T12:10:07.992Z,100996.41
2022-12-24T12:12:40.228Z,100986.06
2022-12-24T12:15:15.831Z,100993.78
2022-12-24T12:17:50.633Z,100996.41
2022-12-24T12:20:32.979Z,101001.59
2022-12-24T12:23:15.791Z,101006.78
2022-12-24T12:25:51.358Z,101016.28
2022-12-24T12:28:36.445Z,101013.72
2022-12-24T12:31:16.403Z,101013.09
2022-12-24T12:33:58.096Z,101007.97
2022-12-24T12:36:39.887Z,101013.19
2022-12-24T12:39:06.689Z,101010.56
2022-12-24T12:41:56.328Z,101007.03
2022-12-24T12:44:49.400Z,101017.31
2022-12-24T12:47:18.708Z,101025.06
2022-12-24T12:49:48.380Z,101019.75
2022-12-24T12:52:47.338Z,101011.91
2022-12-24T12:55:24.885Z,101030.03
2022-12-24T12:57:58.036Z,101022.09
2022-12-24T13:00:24.785Z,101022.97
2022-12-24T13:03:00.504Z,101029.00
2022-12-24T13:06:06.033Z,101028.91
2022-12-24T13:09:05.034Z,101032.28
2022-12-24T13:11:43.520Z,101036.53
2022-12-24T13:14:28.735Z,101047.78
2022-12-24T13:17:04.604Z,101048.63
2022-12-24T13:19:38.468Z,101054.66
2022-12-24T13:22:05.879Z,101054.66
2022-12-24T13:24:33.855Z,101049.47
2022-12-24T13:27:20.920Z,101049.44
2022-12-24T13:30:09.540Z,101059.75
2022-12-24T13:32:40.021Z,101068.38
2022-12-24T13:35:18.917Z,101061.44
2022-12-24T13:37:46.947Z,101072.63
2022-12-24T13:40:17.649Z,101080.41
2022-12-24T13:42:59.460Z,101078.63
2022-12-24T13:45:29.178Z,101078.59
2022-12-24T13:47:57.515Z,101068.97
2022-12-24T13:50:43.973Z,101076.78
2022-12-24T13:53:28.692Z,101083.66
2022-12-24T13:55:57.749Z,101088.78
2022-12-24T13:58:25.960Z,101088.59
2022-12-24T14:01:10.846Z,101090.28
2022-12-24T14:03:42.391Z,101087.53
2022-12-24T14:06:23.239Z,101096.13
2022-12-24T14:08:53.595Z,101099.53
2022-12-24T14:11:25.808Z,101102.94
2022-12-24T14:14:03.268Z,101113.31
2022-12-24T14:16:31.982Z,101104.59
2022-12-24T14:18:58.847Z,101108.03
2022-12-24T14:21:33.375Z,101115.75
2022-12-24T14:24:04.026Z,101118.34
2022-12-24T14:26:35.422Z,101119.19
2022-12-24T14:29:19.885Z,101131.16
2022-12-24T14:31:54.883Z,101136.28
2022-12-24T14:34:21.742Z,101130.13
2022-12-24T14:36:50.389Z,101129.25
2022-12-24T14:39:29.759Z,101130.09
2022-12-24T14:42:22.854Z,101127.47
2022-12-24T14:45:31.130Z,101127.38
2022-12-24T14:48:25.817Z,101134.25
2022-12-24T14:51:01.283Z,101134.22
2022-12-24T14:53:43.053Z,101133.28
2022-12-24T14:56:18.116Z,101135.84
2022-12-24T14:58:46.894Z,101132.31
2022-12-24T15:01:28.788Z,101134.91
2022-12-24T15:04:10.892Z,101140.72
2022-12-24T15:06:41.716Z,101140.47
2022-12-24T15:09:20.575Z,101160.03
2022-12-24T15:11:50.613Z,101158.19
2022-12-24T15:14:18.837Z,101152.91
2022-12-24T15:16:54.603Z,101161.63
2022-12-24T15:19:26.984Z,101169.38
2022-12-24T15:21:55.048Z,101165.84
2022-12-24T15:24:32.929Z,101160.56
2022-12-24T15:27:03.084Z,101162.25
2022-12-24T15:29:32.546Z,101169.91
2022-12-24T15:32:01.414Z,101171.53
2022-12-24T15:34:40.314Z,101168.06
2022-12-24T15:37:25.400Z,101169.81
2022-12-24T15:39:57.144Z,101173.16
2022-12-24T15:42:25.111Z,101164.44
2022-12-24T15:45:05.992Z,101170.34
2022-12-24T15:47:38.660Z,101169.47
2022-12-24T15:50:26.819Z,101167.75
2022-12-24T15:53:20.482Z,101160.72
2022-12-24T15:55:42.446Z,101169.25
2022-12-24T15:58:27.955Z,101159.69
2022-12-24T16:01:10.082Z,101164.75
2022-12-24T16:03:39.213Z,101169.81
2022-12-24T16:06:11.924Z,101181.88
2022-12-24T16:08:40.813Z,101189.72
2022-12-24T16:11:28.535Z,101185.34
2022-12-24T16:13:57.881Z,101190.50
2022-12-24T16:16:42.792Z,101187.78
2022-12-24T16:19:37.628Z,101193.72
2022-12-24T16:22:38.876Z,101179.06
2022-12-24T16:25:25.622Z,101191.13
2022-12-24T16:27:53.075Z,101185.09
2022-12-24T16:30:20.771Z,101187.63
2022-12-24T16:32:48.704Z,101185.91
2022-12-24T16:35:26.518Z,101181.72
2022-12-24T16:37:54.165Z,101185.34
2022-12-24T16:40:26.871Z,101181.09
2022-12-24T16:43:12.984Z,101182.84
2022-12-24T16:45:39.804Z,101190.63
2022-12-24T16:48:07.408Z,101190.78
2022-12-24T16:50:34.665Z,101190.84
2022-12-24T16:53:01.330Z,101196.88
2022-12-24T16:55:27.989Z,101195.13
2022-12-24T16:57:54.702Z,101199.34
2022-12-24T17:00:22.927Z,101207.09
2022-12-24T17:02:50.778Z,101216.56
2022-12-24T17:05:17.994Z,101201.06
2022-12-24T17:07:44.844Z,101207.13
2022-12-24T17:10:14.269Z,101212.25
2022-12-24T17:12:41.377Z,101209.66
2022-12-24T17:15:08.627Z,101204.44
2022-12-24T17:17:35.386Z,101206.13
2022-12-24T17:20:03.329Z,101208.69
2022-12-24T17:22:30.636Z,101213.78
2022-12-24T17:24:58.252Z,101214.53
2022-12-24T17:27:25.036Z,101217.88
2022-12-24T17:29:51.814Z,101217.84
2022-12-24T17:32:18.789Z,101218.59
2022-12-24T17:34:45.673Z,101219.38
2022-12-24T17:37:12.500Z,101221.75
2022-12-24T17:39:39.178Z,101229.41
2022-12-24T17:42:05.927Z,101229.06
2022-12-24T17:44:32.702Z,101235.63
2022-12-24T17:46:59.819Z,101229.34
2022-12-24T17:49:26.613Z,101239.47
2022-12-24T17:51:53.348Z,101244.34
2022-12-24T17:54:20.001Z,101244.09
2022-12-24T17:56:46.685Z,101243.16
2022-12-24T17:59:14.111Z,101244.94
2022-12-24T18:01:41.062Z,101244.09
2022-12-24T18:04:07.853Z,101250.19
2022-12-24T18:06:34.627Z,101253.69
2022-12-24T18:09:01.388Z,101254.69
2022-12-24T18:11:32.791Z,101257.34
2022-12-24T18:14:01.337Z,101258.38
2022-12-24T18:16:35.855Z,101254.06
2022-12-24T18:19:04.416Z,101261.94
2022-12-24T18:21:33.173Z,101259.38
2022-12-24T18:24:00.416Z,101266.38
2022-12-24T18:26:29.194Z,101262.94
2022-12-24T18:28:57.904Z,101268.22
2022-12-24T18:31:26.843Z,101269.22
2022-12-24T18:33:55.900Z,101276.25
2022-12-24T18:36:23.288Z,101273.75
2022-12-24T18:38:50.351Z,101266.91
2022-12-24T18:41:20.292Z,101275.63
2022-12-24T18:43:48.231Z,101269.63
2022-12-24T18:46:17.422Z,101286.06
2022-12-24T18:48:44.307Z,101288.63
2022-12-24T18:51:11.259Z,101294.66
2022-12-24T18:53:38.742Z,101300.59
2022-12-24T18:56:07.746Z,101299.53
2022-12-24T18:58:34.433Z,101298.53
2022-12-24T19:01:01.199Z,101288.16
2022-12-24T19:03:27.984Z,101295.88
2022-12-24T19:06:00.352Z,101287.03
2022-12-24T19:08:56.492Z,101286.00
2022-12-24T19:11:13.961Z,101291.09
2022-12-24T19:13:40.692Z,101295.38
2022-12-24T19:16:08.302Z,101306.56
2022-12-24T19:18:35.548Z,101304.09
2022-12-24T19:21:07.144Z,101304.09
2022-12-24T19:23:34.459Z,101301.44
2022-12-24T19:26:01.237Z,101305.63
2022-12-24T19:28:29.488Z,101315.81
2022-12-24T19:30:56.270Z,101317.41
2022-12-24T19:33:22.909Z,101327.63
2022-12-24T19:35:49.638Z,101333.50
2022-12-24T19:38:16.312Z,101337.72
2022-12-24T19:40:42.994Z,101339.34
2022-12-24T19:43:09.712Z,101337.53
2022-12-24T19:45:36.391Z,101343.63
2022-12-24T19:48:03.254Z,101328.13
2022-12-24T19:50:30.072Z,101340.28
2022-12-24T19:52:56.952Z,101351.69
2022-12-24T19:55:23.678Z,101356.03
2022-12-24T19:57:52.634Z,101359.53
2022-12-24T20:00:19.729Z,101348.38
2022-12-24T20:02:46.474Z,101351.09
2022-12-24T20:05:13.146Z,101353.75
2022-12-24T20:07:39.791Z,101344.38
2022-12-24T20:10:07.168Z,101350.56
2022-12-24T20:12:34.349Z,101357.53
2022-12-24T20:15:01.110Z,101364.59
2022-12-24T20:17:27.820Z,101369.75
2022-12-24T20:19:54.695Z,101370.72
2022-12-24T20:22:21.351Z,101369.13
2022-12-24T20:24:48.033Z,101373.50
2022-12-24T20:27:14.746Z,101373.50
2022-12-24T20:29:41.501Z,101375.28
2022-12-24T20:32:08.286Z,101371.88
2022-12-24T20:34:35.154Z,101381.38
2022-12-24T20:37:01.857Z,101382.22
2022-12-24T20:39:28.567Z,101387.41
2022-12-24T20:41:55.262Z,101387.44
2022-12-24T20:44:21.997Z,101386.69
2022-12-24T20:46:48.705Z,101390.22
2022-12-24T20:49:15.436Z,101391.97
2022-12-24T20:51:42.101Z,101392.94
2022-12-24T20:54:10.849Z,101386.94
2022-12-24T20:56:37.889Z,101393.06
2022-12-24T20:59:04.752Z,101387.88
2022-12-24T21:01:31.650Z,101392.22
2022-12-24T21:04:00.330Z,101396.50
2022-12-24T21:06:27.104Z,101395.63
2022-12-24T21:08:54.135Z,101406.03
2022-12-24T21:11:40.782Z,101406.06
2022-12-24T21:14:07.550Z,101414.78
2022-12-24T21:16:36.581Z,101409.69
2022-12-24T21:19:04.761Z,101415.84
2022-12-24T21:21:31.750Z,101411.72
2022-12-24T21:23:58.457Z,101418.78
2022-12-24T21:26:25.132Z,101417.97
2022-12-24T21:28:53.242Z,101422.44
2022-12-24T21:31:20.233Z,101416.53
2022-12-24T21:33:47.527Z,101415.00
2022-12-24T21:36:14.782Z,101420.16
2022-12-24T21:38:41.562Z,101426.28
2022-12-24T21:41:17.085Z,101431.50
2022-12-24T21:43:45.011Z,101425.69
2022-12-24T21:46:14.869Z,101420.75
2022-12-24T21:49:00.321Z,101429.66
2022-12-24T21:51:28.269Z,101435.19
2022-12-24T21:54:14.326Z,101436.34
2022-12-24T21:56:59.991Z,101434.81
2022-12-24T21:59:27.554Z,101442.78
2022-12-24T22:01:55.366Z,101442.91
2022-12-24T22:04:22.356Z,101443.91
2022-12-24T22:07:07.817Z,101442.28
2022-12-24T22:09:53.360Z,101439.81
2022-12-24T22:12:20.110Z,101436.38
2022-12-24T22:14:46.936Z,101442.44
2022-12-24T22:17:13.639Z,101441.56
2022-12-24T22:19:41.345Z,101429.47
2022-12-24T22:22:08.015Z,101430.44
2022-12-24T22:24:34.666Z,101426.28
2022-12-24T22:27:01.361Z,101424.78
2022-12-24T22:29:28.002Z,101424.94
2022-12-24T22:31:54.718Z,101432.03
2022-12-24T22:34:21.442Z,101430.34
2022-12-24T22:36:48.121Z,101429.56
2022-12-24T22:39:14.897Z,101432.16
2022-12-24T22:41:41.585Z,101435.69
2022-12-24T22:44:08.265Z,101444.38
2022-12-24T22:46:34.983Z,101444.47
2022-12-24T22:49:01.754Z,101441.94
2022-12-24T22:51:28.441Z,101439.41
2022-12-24T22:53:55.098Z,101441.16
2022-12-24T22:56:23.104Z,101446.41
2022-12-24T22:58:54.196Z,101448.94
2022-12-24T23:01:40.938Z,101450.66
2022-12-24T23:04:08.224Z,101449.00
2022-12-24T23:06:35.591Z,101451.63
2022-12-24T23:09:04.572Z,101454.38
2022-12-24T23:11:31.390Z,101451.94
2022-12-24T23:14:16.629Z,101454.66
2022-12-24T23:16:43.329Z,101458.97
2022-12-24T23:19:10.025Z,101459.78
2022-12-24T23:21:37.125Z,101458.13
2022-12-24T23:24:04.082Z,101461.59
2022-12-24T23:26:30.882Z,101460.72
2022-12-24T23:28:57.991Z,101463.19
2022-12-24T23:31:25.992Z,101464.06
2022-12-24T23:33:53.416Z,101465.81
2022-12-24T23:36:21.406Z,101464.19
2022-12-24T23:38:48.679Z,101465.19
2022-12-24T23:41:17.958Z,101467.78
2022-12-24T23:43:45.700Z,101474.50
2022-12-24T23:46:17.638Z,101478.66
2022-12-24T23:48:46.029Z,101472.59
2022-12-24T23:51:16.843Z,101479.41
2022-12-24T23:53:43.974Z,101475.91
2022-12-24T23:56:12.199Z,101480.09
2022-12-24T23:58:40.940Z,101485.00
